sensor_id;sensor_type;location;lat;lon;timestamp;P1;durP1;ratioP1;P2;durP2;ratioP2
5898;SDS011;2975;50.956;6.962;2023-04-25T00:02:05;8.30;;;3.97;;
5898;SDS011;2975;50.956;6.962;2023-04-25T00:04:32;8.13;;;3.40;;
5898;SDS011;2975;50.956;6.962;2023-04-25T00:06:58;11.03;;;3.27;;
5898;SDS011;2975;50.956;6.962;2023-04-25T00:09:26;10.00;;;3.90;;
5898;SDS011;2975;50.956;6.962;2023-04-25T00:11:52;7.90;;;3.63;;
5898;SDS011;2975;50.956;6.962;2023-04-25T00:14:18;8.57;;;3.20;;
5898;SDS011;2975;50.956;6.962;2023-04-25T00:16:44;8.03;;;4.10;;
5898;SDS011;2975;50.956;6.962;2023-04-25T00:19:09;9.73;;;3.47;;
5898;SDS011;2975;50.956;6.962;2023-04-25T00:21:35;8.83;;;3.77;;
5898;SDS011;2975;50.956;6.962;2023-04-25T00:24:02;10.97;;;4.10;;
5898;SDS011;2975;50.956;6.962;2023-04-25T00:26:28;10.73;;;3.87;;
5898;SDS011;2975;50.956;6.962;2023-04-25T00:28:54;16.07;;;4.07;;
5898;SDS011;2975;50.956;6.962;2023-04-25T00:31:20;8.93;;;3.53;;
5898;SDS011;2975;50.956;6.962;2023-04-25T00:33:46;9.03;;;3.23;;
5898;SDS011;2975;50.956;6.962;2023-04-25T00:36:12;11.27;;;3.93;;
5898;SDS011;2975;50.956;6.962;2023-04-25T00:38:37;13.60;;;4.33;;
5898;SDS011;2975;50.956;6.962;2023-04-25T00:41:04;11.63;;;3.93;;
5898;SDS011;2975;50.956;6.962;2023-04-25T00:43:31;10.37;;;4.00;;
5898;SDS011;2975;50.956;6.962;2023-04-25T00:45:59;10.90;;;3.90;;
5898;SDS011;2975;50.956;6.962;2023-04-25T00:48:26;11.90;;;4.20;;
5898;SDS011;2975;50.956;6.962;2023-04-25T00:50:52;10.77;;;4.13;;
5898;SDS011;2975;50.956;6.962;2023-04-25T00:53:20;9.07;;;3.77;;
5898;SDS011;2975;50.956;6.962;2023-04-25T00:55:46;11.10;;;4.70;;
5898;SDS011;2975;50.956;6.962;2023-04-25T00:58:13;11.87;;;3.63;;
5898;SDS011;2975;50.956;6.962;2023-04-25T01:00:39;12.20;;;4.03;;
5898;SDS011;2975;50.956;6.962;2023-04-25T01:03:06;9.03;;;3.97;;
5898;SDS011;2975;50.956;6.962;2023-04-25T01:05:31;10.90;;;3.97;;
5898;SDS011;2975;50.956;6.962;2023-04-25T01:07:57;10.77;;;3.80;;
5898;SDS011;2975;50.956;6.962;2023-04-25T01:10:23;9.83;;;3.40;;
5898;SDS011;2975;50.956;6.962;2023-04-25T01:12:49;15.27;;;4.40;;
5898;SDS011;2975;50.956;6.962;2023-04-25T01:15:15;13.60;;;4.37;;
5898;SDS011;2975;50.956;6.962;2023-04-25T01:17:41;15.23;;;4.00;;
5898;SDS011;2975;50.956;6.962;2023-04-25T01:20:07;10.37;;;3.70;;
5898;SDS011;2975;50.956;6.962;2023-04-25T01:22:34;13.00;;;4.03;;
5898;SDS011;2975;50.956;6.962;2023-04-25T01:25:00;12.47;;;3.60;;
5898;SDS011;2975;50.956;6.962;2023-04-25T01:27:25;8.83;;;4.13;;
5898;SDS011;2975;50.956;6.962;2023-04-25T01:29:52;11.63;;;4.00;;
5898;SDS011;2975;50.956;6.962;2023-04-25T01:32:20;12.53;;;4.30;;
5898;SDS011;2975;50.956;6.962;2023-04-25T01:34:47;9.17;;;4.17;;
5898;SDS011;2975;50.956;6.962;2023-04-25T01:37:13;12.43;;;4.53;;
5898;SDS011;2975;50.956;6.962;2023-04-25T01:39:38;12.67;;;4.67;;
5898;SDS011;2975;50.956;6.962;2023-04-25T01:42:04;11.80;;;4.47;;
5898;SDS011;2975;50.956;6.962;2023-04-25T01:44:30;7.37;;;3.90;;
5898;SDS011;2975;50.956;6.962;2023-04-25T01:46:55;17.63;;;4.63;;
5898;SDS011;2975;50.956;6.962;2023-04-25T01:49:21;11.70;;;4.07;;
5898;SDS011;2975;50.956;6.962;2023-04-25T01:51:47;11.73;;;4.57;;
5898;SDS011;2975;50.956;6.962;2023-04-25T01:54:12;12.70;;;4.40;;
5898;SDS011;2975;50.956;6.962;2023-04-25T01:56:38;21.77;;;4.73;;
5898;SDS011;2975;50.956;6.962;2023-04-25T01:59:05;14.67;;;5.07;;
5898;SDS011;2975;50.956;6.962;2023-04-25T02:01:30;12.30;;;4.63;;
5898;SDS011;2975;50.956;6.962;2023-04-25T02:03:56;9.07;;;3.53;;
5898;SDS011;2975;50.956;6.962;2023-04-25T02:06:22;11.70;;;4.07;;
5898;SDS011;2975;50.956;6.962;2023-04-25T02:08:47;12.20;;;4.03;;
5898;SDS011;2975;50.956;6.962;2023-04-25T02:11:13;8.80;;;4.43;;
5898;SDS011;2975;50.956;6.962;2023-04-25T02:13:39;14.80;;;3.83;;
5898;SDS011;2975;50.956;6.962;2023-04-25T02:16:04;16.63;;;4.50;;
5898;SDS011;2975;50.956;6.962;2023-04-25T02:18:30;12.13;;;4.47;;
5898;SDS011;2975;50.956;6.962;2023-04-25T02:20:58;13.27;;;4.43;;
5898;SDS011;2975;50.956;6.962;2023-04-25T02:23:24;12.67;;;4.20;;
5898;SDS011;2975;50.956;6.962;2023-04-25T02:25:50;16.53;;;4.30;;
5898;SDS011;2975;50.956;6.962;2023-04-25T02:28:16;16.43;;;4.70;;
5898;SDS011;2975;50.956;6.962;2023-04-25T02:30:42;11.37;;;4.97;;
5898;SDS011;2975;50.956;6.962;2023-04-25T02:33:07;13.30;;;4.73;;
5898;SDS011;2975;50.956;6.962;2023-04-25T02:35:33;14.33;;;4.50;;
5898;SDS011;2975;50.956;6.962;2023-04-25T02:37:59;7.70;;;4.07;;
5898;SDS011;2975;50.956;6.962;2023-04-25T02:40:24;13.60;;;4.47;;
5898;SDS011;2975;50.956;6.962;2023-04-25T02:42:50;13.50;;;4.37;;
5898;SDS011;2975;50.956;6.962;2023-04-25T02:45:16;8.97;;;3.27;;
5898;SDS011;2975;50.956;6.962;2023-04-25T02:47:42;12.60;;;3.87;;
5898;SDS011;2975;50.956;6.962;2023-04-25T02:50:07;11.60;;;3.43;;
5898;SDS011;2975;50.956;6.962;2023-04-25T02:52:33;9.80;;;4.80;;
5898;SDS011;2975;50.956;6.962;2023-04-25T02:54:59;10.70;;;3.57;;
5898;SDS011;2975;50.956;6.962;2023-04-25T02:57:24;11.20;;;3.30;;
5898;SDS011;2975;50.956;6.962;2023-04-25T02:59:50;12.60;;;3.83;;
5898;SDS011;2975;50.956;6.962;2023-04-25T03:02:16;7.60;;;2.93;;
5898;SDS011;2975;50.956;6.962;2023-04-25T03:04:41;6.87;;;3.20;;
5898;SDS011;2975;50.956;6.962;2023-04-25T03:07:07;9.63;;;3.37;;
5898;SDS011;2975;50.956;6.962;2023-04-25T03:09:33;9.07;;;3.10;;
5898;SDS011;2975;50.956;6.962;2023-04-25T03:11:59;14.60;;;3.50;;
5898;SDS011;2975;50.956;6.962;2023-04-25T03:14:26;7.70;;;3.10;;
5898;SDS011;2975;50.956;6.962;2023-04-25T03:16:52;16.40;;;3.53;;
5898;SDS011;2975;50.956;6.962;2023-04-25T03:19:17;7.77;;;3.20;;
5898;SDS011;2975;50.956;6.962;2023-04-25T03:21:43;7.97;;;3.13;;
5898;SDS011;2975;50.956;6.962;2023-04-25T03:24:09;6.57;;;2.90;;
5898;SDS011;2975;50.956;6.962;2023-04-25T03:26:36;7.23;;;3.43;;
5898;SDS011;2975;50.956;6.962;2023-04-25T03:29:01;10.20;;;3.33;;
5898;SDS011;2975;50.956;6.962;2023-04-25T03:31:27;9.07;;;3.43;;
5898;SDS011;2975;50.956;6.962;2023-04-25T03:33:53;7.90;;;3.53;;
5898;SDS011;2975;50.956;6.962;2023-04-25T03:36:18;9.03;;;3.90;;
5898;SDS011;2975;50.956;6.962;2023-04-25T03:38:44;11.00;;;4.50;;
5898;SDS011;2975;50.956;6.962;2023-04-25T03:41:10;10.77;;;3.37;;
5898;SDS011;2975;50.956;6.962;2023-04-25T03:43:35;9.57;;;3.27;;
5898;SDS011;2975;50.956;6.962;2023-04-25T03:46:01;12.73;;;4.70;;
5898;SDS011;2975;50.956;6.962;2023-04-25T03:48:27;15.00;;;4.53;;
5898;SDS011;2975;50.956;6.962;2023-04-25T03:50:53;10.37;;;4.00;;
5898;SDS011;2975;50.956;6.962;2023-04-25T03:53:19;8.33;;;3.83;;
5898;SDS011;2975;50.956;6.962;2023-04-25T03:55:44;10.73;;;3.83;;
5898;SDS011;2975;50.956;6.962;2023-04-25T03:58:10;13.50;;;4.20;;
5898;SDS011;2975;50.956;6.962;2023-04-25T04:00:36;10.50;;;3.80;;
5898;SDS011;2975;50.956;6.962;2023-04-25T04:03:01;12.37;;;3.77;;
5898;SDS011;2975;50.956;6.962;2023-04-25T04:05:27;7.37;;;3.83;;
5898;SDS011;2975;50.956;6.962;2023-04-25T04:07:53;7.57;;;3.73;;
5898;SDS011;2975;50.956;6.962;2023-04-25T04:10:20;8.47;;;3.80;;
5898;SDS011;2975;50.956;6.962;2023-04-25T04:12:45;9.10;;;4.00;;
5898;SDS011;2975;50.956;6.962;2023-04-25T04:15:11;10.87;;;4.10;;
5898;SDS011;2975;50.956;6.962;2023-04-25T04:17:37;11.23;;;5.27;;
5898;SDS011;2975;50.956;6.962;2023-04-25T04:20:03;8.37;;;4.20;;
5898;SDS011;2975;50.956;6.962;2023-04-25T04:22:29;19.97;;;8.20;;
5898;SDS011;2975;50.956;6.962;2023-04-25T04:24:55;11.27;;;5.70;;
5898;SDS011;2975;50.956;6.962;2023-04-25T04:27:21;10.90;;;4.20;;
5898;SDS011;2975;50.956;6.962;2023-04-25T04:29:48;13.63;;;4.17;;
5898;SDS011;2975;50.956;6.962;2023-04-25T04:32:15;13.63;;;4.70;;
5898;SDS011;2975;50.956;6.962;2023-04-25T04:34:41;15.60;;;6.20;;
5898;SDS011;2975;50.956;6.962;2023-04-25T04:37:06;8.23;;;4.97;;
5898;SDS011;2975;50.956;6.962;2023-04-25T04:39:33;13.57;;;4.97;;
5898;SDS011;2975;50.956;6.962;2023-04-25T04:41:59;9.87;;;4.70;;
5898;SDS011;2975;50.956;6.962;2023-04-25T04:44:26;10.20;;;4.57;;
5898;SDS011;2975;50.956;6.962;2023-04-25T04:46:53;19.57;;;4.90;;
5898;SDS011;2975;50.956;6.962;2023-04-25T04:49:19;10.70;;;4.13;;
5898;SDS011;2975;50.956;6.962;2023-04-25T04:51:45;13.83;;;4.63;;
5898;SDS011;2975;50.956;6.962;2023-04-25T04:54:12;14.70;;;4.17;;
5898;SDS011;2975;50.956;6.962;2023-04-25T04:56:37;12.90;;;3.90;;
5898;SDS011;2975;50.956;6.962;2023-04-25T04:59:03;12.00;;;4.93;;
5898;SDS011;2975;50.956;6.962;2023-04-25T05:01:28;14.17;;;4.20;;
5898;SDS011;2975;50.956;6.962;2023-04-25T05:03:57;11.23;;;4.73;;
5898;SDS011;2975;50.956;6.962;2023-04-25T05:06:26;12.63;;;4.10;;
5898;SDS011;2975;50.956;6.962;2023-04-25T05:08:54;13.17;;;4.80;;
5898;SDS011;2975;50.956;6.962;2023-04-25T05:11:20;12.07;;;3.83;;
5898;SDS011;2975;50.956;6.962;2023-04-25T05:13:46;12.73;;;4.63;;
5898;SDS011;2975;50.956;6.962;2023-04-25T05:16:11;13.37;;;4.63;;
5898;SDS011;2975;50.956;6.962;2023-04-25T05:18:38;13.17;;;4.60;;
5898;SDS011;2975;50.956;6.962;2023-04-25T05:21:04;10.37;;;4.10;;
5898;SDS011;2975;50.956;6.962;2023-04-25T05:23:30;15.47;;;4.33;;
5898;SDS011;2975;50.956;6.962;2023-04-25T05:25:57;13.07;;;4.80;;
5898;SDS011;2975;50.956;6.962;2023-04-25T05:28:22;14.83;;;4.40;;
5898;SDS011;2975;50.956;6.962;2023-04-25T05:30:48;12.87;;;4.50;;
5898;SDS011;2975;50.956;6.962;2023-04-25T05:33:14;10.47;;;4.50;;
5898;SDS011;2975;50.956;6.962;2023-04-25T05:35:40;7.97;;;4.40;;
5898;SDS011;2975;50.956;6.962;2023-04-25T05:38:05;10.20;;;4.63;;
5898;SDS011;2975;50.956;6.962;2023-04-25T05:40:31;8.63;;;4.30;;
5898;SDS011;2975;50.956;6.962;2023-04-25T05:42:57;11.67;;;3.70;;
5898;SDS011;2975;50.956;6.962;2023-04-25T05:45:22;15.10;;;4.10;;
5898;SDS011;2975;50.956;6.962;2023-04-25T05:47:48;15.37;;;4.43;;
5898;SDS011;2975;50.956;6.962;2023-04-25T05:50:13;12.60;;;4.13;;
5898;SDS011;2975;50.956;6.962;2023-04-25T05:52:39;10.67;;;3.43;;
5898;SDS011;2975;50.956;6.962;2023-04-25T05:55:05;8.57;;;3.73;;
5898;SDS011;2975;50.956;6.962;2023-04-25T05:57:31;11.00;;;3.53;;
5898;SDS011;2975;50.956;6.962;2023-04-25T05:59:56;9.20;;;3.60;;
5898;SDS011;2975;50.956;6.962;2023-04-25T06:02:22;8.30;;;3.27;;
5898;SDS011;2975;50.956;6.962;2023-04-25T06:04:51;11.77;;;3.93;;
5898;SDS011;2975;50.956;6.962;2023-04-25T06:07:17;7.40;;;3.23;;
5898;SDS011;2975;50.956;6.962;2023-04-25T06:09:43;10.53;;;3.13;;
5898;SDS011;2975;50.956;6.962;2023-04-25T06:12:09;12.90;;;3.17;;
5898;SDS011;2975;50.956;6.962;2023-04-25T06:14:35;11.60;;;3.23;;
5898;SDS011;2975;50.956;6.962;2023-04-25T06:17:00;17.50;;;4.57;;
5898;SDS011;2975;50.956;6.962;2023-04-25T06:19:31;9.83;;;4.00;;
5898;SDS011;2975;50.956;6.962;2023-04-25T06:21:58;10.23;;;3.50;;
5898;SDS011;2975;50.956;6.962;2023-04-25T06:24:23;13.83;;;3.77;;
5898;SDS011;2975;50.956;6.962;2023-04-25T06:26:49;12.30;;;3.60;;
5898;SDS011;2975;50.956;6.962;2023-04-25T06:29:14;11.97;;;4.10;;
5898;SDS011;2975;50.956;6.962;2023-04-25T06:31:40;9.73;;;3.20;;
5898;SDS011;2975;50.956;6.962;2023-04-25T06:34:06;12.93;;;3.53;;
5898;SDS011;2975;50.956;6.962;2023-04-25T06:36:31;11.23;;;4.10;;
5898;SDS011;2975;50.956;6.962;2023-04-25T06:38:57;20.53;;;4.23;;
5898;SDS011;2975;50.956;6.962;2023-04-25T06:41:22;12.33;;;3.33;;
5898;SDS011;2975;50.956;6.962;2023-04-25T06:43:48;13.97;;;3.67;;
5898;SDS011;2975;50.956;6.962;2023-04-25T06:46:13;11.53;;;3.60;;
5898;SDS011;2975;50.956;6.962;2023-04-25T06:48:39;11.40;;;3.50;;
5898;SDS011;2975;50.956;6.962;2023-04-25T06:51:05;8.00;;;3.33;;
5898;SDS011;2975;50.956;6.962;2023-04-25T06:53:30;13.17;;;3.87;;
5898;SDS011;2975;50.956;6.962;2023-04-25T06:55:56;11.23;;;3.30;;
5898;SDS011;2975;50.956;6.962;2023-04-25T06:58:21;10.53;;;3.23;;
5898;SDS011;2975;50.956;6.962;2023-04-25T07:00:47;14.70;;;3.93;;
5898;SDS011;2975;50.956;6.962;2023-04-25T07:03:13;9.33;;;3.60;;
5898;SDS011;2975;50.956;6.962;2023-04-25T07:05:38;13.57;;;3.77;;
5898;SDS011;2975;50.956;6.962;2023-04-25T07:08:04;8.87;;;3.87;;
5898;SDS011;2975;50.956;6.962;2023-04-25T07:10:29;14.90;;;3.97;;
5898;SDS011;2975;50.956;6.962;2023-04-25T07:12:55;13.13;;;3.83;;
5898;SDS011;2975;50.956;6.962;2023-04-25T07:15:21;11.67;;;3.70;;
5898;SDS011;2975;50.956;6.962;2023-04-25T07:17:46;8.70;;;3.57;;
5898;SDS011;2975;50.956;6.962;2023-04-25T07:20:12;10.43;;;4.17;;
5898;SDS011;2975;50.956;6.962;2023-04-25T07:22:38;11.87;;;4.03;;
5898;SDS011;2975;50.956;6.962;2023-04-25T07:25:03;9.17;;;3.93;;
5898;SDS011;2975;50.956;6.962;2023-04-25T07:27:30;8.60;;;3.67;;
5898;SDS011;2975;50.956;6.962;2023-04-25T07:29:56;14.27;;;3.63;;
5898;SDS011;2975;50.956;6.962;2023-04-25T07:32:22;9.63;;;3.03;;
5898;SDS011;2975;50.956;6.962;2023-04-25T07:34:48;11.77;;;3.47;;
5898;SDS011;2975;50.956;6.962;2023-04-25T07:37:14;13.37;;;4.00;;
5898;SDS011;2975;50.956;6.962;2023-04-25T07:39:40;10.37;;;3.90;;
5898;SDS011;2975;50.956;6.962;2023-04-25T07:42:05;9.87;;;3.80;;
5898;SDS011;2975;50.956;6.962;2023-04-25T07:44:33;8.77;;;4.10;;
5898;SDS011;2975;50.956;6.962;2023-04-25T07:47:03;14.77;;;3.73;;
5898;SDS011;2975;50.956;6.962;2023-04-25T07:49:36;13.33;;;3.50;;
5898;SDS011;2975;50.956;6.962;2023-04-25T07:52:05;12.03;;;3.57;;
5898;SDS011;2975;50.956;6.962;2023-04-25T07:54:31;9.67;;;2.93;;
5898;SDS011;2975;50.956;6.962;2023-04-25T07:56:57;9.53;;;3.60;;
5898;SDS011;2975;50.956;6.962;2023-04-25T07:59:23;9.50;;;3.10;;
5898;SDS011;2975;50.956;6.962;2023-04-25T08:01:49;9.90;;;3.53;;
5898;SDS011;2975;50.956;6.962;2023-04-25T08:04:15;16.30;;;3.73;;
5898;SDS011;2975;50.956;6.962;2023-04-25T08:06:40;11.17;;;4.03;;
5898;SDS011;2975;50.956;6.962;2023-04-25T08:09:06;13.53;;;3.70;;
5898;SDS011;2975;50.956;6.962;2023-04-25T08:11:33;12.90;;;3.47;;
5898;SDS011;2975;50.956;6.962;2023-04-25T08:13:59;12.27;;;2.90;;
5898;SDS011;2975;50.956;6.962;2023-04-25T08:16:25;6.93;;;2.73;;
5898;SDS011;2975;50.956;6.962;2023-04-25T08:18:50;14.17;;;3.27;;
5898;SDS011;2975;50.956;6.962;2023-04-25T08:21:16;10.47;;;3.57;;
5898;SDS011;2975;50.956;6.962;2023-04-25T08:23:41;10.93;;;3.00;;
5898;SDS011;2975;50.956;6.962;2023-04-25T08:26:07;7.77;;;3.07;;
5898;SDS011;2975;50.956;6.962;2023-04-25T08:28:33;9.60;;;3.53;;
5898;SDS011;2975;50.956;6.962;2023-04-25T08:30:59;12.13;;;2.57;;
5898;SDS011;2975;50.956;6.962;2023-04-25T08:33:25;9.70;;;2.80;;
5898;SDS011;2975;50.956;6.962;2023-04-25T08:35:51;6.47;;;2.07;;
5898;SDS011;2975;50.956;6.962;2023-04-25T08:38:17;12.17;;;2.47;;
5898;SDS011;2975;50.956;6.962;2023-04-25T08:40:43;8.30;;;2.67;;
5898;SDS011;2975;50.956;6.962;2023-04-25T08:43:09;7.97;;;2.00;;
5898;SDS011;2975;50.956;6.962;2023-04-25T08:45:41;8.20;;;2.07;;
5898;SDS011;2975;50.956;6.962;2023-04-25T08:48:11;8.90;;;2.10;;
5898;SDS011;2975;50.956;6.962;2023-04-25T08:50:50;8.50;;;1.83;;
5898;SDS011;2975;50.956;6.962;2023-04-25T08:53:19;9.57;;;2.40;;
5898;SDS011;2975;50.956;6.962;2023-04-25T08:55:50;8.57;;;2.90;;
5898;SDS011;2975;50.956;6.962;2023-04-25T08:58:16;11.97;;;2.33;;
5898;SDS011;2975;50.956;6.962;2023-04-25T09:00:43;7.63;;;2.37;;
5898;SDS011;2975;50.956;6.962;2023-04-25T09:03:10;9.53;;;2.70;;
5898;SDS011;2975;50.956;6.962;2023-04-25T09:05:36;7.20;;;2.20;;
5898;SDS011;2975;50.956;6.962;2023-04-25T09:08:02;8.17;;;3.37;;
5898;SDS011;2975;50.956;6.962;2023-04-25T09:10:28;8.97;;;2.10;;
5898;SDS011;2975;50.956;6.962;2023-04-25T09:13:06;8.33;;;2.63;;
5898;SDS011;2975;50.956;6.962;2023-04-25T09:15:47;14.07;;;2.17;;
5898;SDS011;2975;50.956;6.962;2023-04-25T09:18:27;7.47;;;2.10;;
5898;SDS011;2975;50.956;6.962;2023-04-25T09:21:11;6.87;;;2.00;;
5898;SDS011;2975;50.956;6.962;2023-04-25T09:23:44;9.03;;;2.27;;
5898;SDS011;2975;50.956;6.962;2023-04-25T09:26:15;5.07;;;1.60;;
5898;SDS011;2975;50.956;6.962;2023-04-25T09:28:45;7.23;;;2.70;;
5898;SDS011;2975;50.956;6.962;2023-04-25T09:31:20;6.47;;;1.90;;
5898;SDS011;2975;50.956;6.962;2023-04-25T09:33:50;5.10;;;1.80;;
5898;SDS011;2975;50.956;6.962;2023-04-25T09:36:23;5.97;;;1.63;;
5898;SDS011;2975;50.956;6.962;2023-04-25T09:38:52;7.13;;;1.60;;
5898;SDS011;2975;50.956;6.962;2023-04-25T09:41:22;8.93;;;1.90;;
5898;SDS011;2975;50.956;6.962;2023-04-25T09:43:49;8.17;;;1.60;;
5898;SDS011;2975;50.956;6.962;2023-04-25T09:46:15;2.60;;;1.30;;
5898;SDS011;2975;50.956;6.962;2023-04-25T09:48:50;5.43;;;1.70;;
5898;SDS011;2975;50.956;6.962;2023-04-25T09:51:18;9.03;;;1.83;;
5898;SDS011;2975;50.956;6.962;2023-04-25T09:53:44;6.83;;;1.77;;
5898;SDS011;2975;50.956;6.962;2023-04-25T09:56:14;6.37;;;2.10;;
5898;SDS011;2975;50.956;6.962;2023-04-25T09:58:41;8.93;;;1.77;;
5898;SDS011;2975;50.956;6.962;2023-04-25T10:01:07;6.63;;;1.70;;
5898;SDS011;2975;50.956;6.962;2023-04-25T10:03:35;7.63;;;1.90;;
5898;SDS011;2975;50.956;6.962;2023-04-25T10:06:03;4.30;;;1.60;;
5898;SDS011;2975;50.956;6.962;2023-04-25T10:08:32;9.50;;;1.93;;
5898;SDS011;2975;50.956;6.962;2023-04-25T10:11:00;6.60;;;1.90;;
5898;SDS011;2975;50.956;6.962;2023-04-25T10:13:28;4.90;;;1.57;;
5898;SDS011;2975;50.956;6.962;2023-04-25T10:15:58;5.47;;;1.70;;
5898;SDS011;2975;50.956;6.962;2023-04-25T10:18:25;6.67;;;2.03;;
5898;SDS011;2975;50.956;6.962;2023-04-25T10:20:52;11.77;;;1.80;;
5898;SDS011;2975;50.956;6.962;2023-04-25T10:23:25;8.13;;;1.70;;
5898;SDS011;2975;50.956;6.962;2023-04-25T10:25:52;4.63;;;1.67;;
5898;SDS011;2975;50.956;6.962;2023-04-25T10:28:19;5.20;;;1.63;;
5898;SDS011;2975;50.956;6.962;2023-04-25T10:33:34;7.27;;;1.80;;
5898;SDS011;2975;50.956;6.962;2023-04-25T10:36:35;9.20;;;2.30;;
5898;SDS011;2975;50.956;6.962;2023-04-25T10:38:58;9.17;;;1.57;;
5898;SDS011;2975;50.956;6.962;2023-04-25T10:41:32;3.60;;;1.67;;
5898;SDS011;2975;50.956;6.962;2023-04-25T10:44:12;6.00;;;1.27;;
5898;SDS011;2975;50.956;6.962;2023-04-25T10:46:39;7.40;;;1.80;;
5898;SDS011;2975;50.956;6.962;2023-04-25T10:49:05;5.50;;;1.30;;
5898;SDS011;2975;50.956;6.962;2023-04-25T10:51:35;5.33;;;1.60;;
5898;SDS011;2975;50.956;6.962;2023-04-25T10:54:05;7.50;;;1.83;;
5898;SDS011;2975;50.956;6.962;2023-04-25T10:56:38;5.90;;;1.47;;
5898;SDS011;2975;50.956;6.962;2023-04-25T10:59:12;5.40;;;1.63;;
5898;SDS011;2975;50.956;6.962;2023-04-25T11:04:06;9.97;;;2.00;;
5898;SDS011;2975;50.956;6.962;2023-04-25T11:06:50;4.47;;;1.53;;
5898;SDS011;2975;50.956;6.962;2023-04-25T11:09:35;5.23;;;1.70;;
5898;SDS011;2975;50.956;6.962;2023-04-25T11:12:03;6.10;;;1.40;;
5898;SDS011;2975;50.956;6.962;2023-04-25T11:14:30;8.97;;;1.40;;
5898;SDS011;2975;50.956;6.962;2023-04-25T11:16:56;8.03;;;1.63;;
5898;SDS011;2975;50.956;6.962;2023-04-25T11:19:23;4.63;;;1.30;;
5898;SDS011;2975;50.956;6.962;2023-04-25T11:21:50;5.53;;;1.70;;
5898;SDS011;2975;50.956;6.962;2023-04-25T11:24:16;4.83;;;1.97;;
5898;SDS011;2975;50.956;6.962;2023-04-25T11:26:42;5.67;;;1.57;;
5898;SDS011;2975;50.956;6.962;2023-04-25T11:29:11;6.70;;;1.80;;
5898;SDS011;2975;50.956;6.962;2023-04-25T11:31:37;5.83;;;1.70;;
5898;SDS011;2975;50.956;6.962;2023-04-25T11:34:02;7.23;;;1.70;;
5898;SDS011;2975;50.956;6.962;2023-04-25T11:36:28;5.07;;;1.50;;
5898;SDS011;2975;50.956;6.962;2023-04-25T11:38:53;2.77;;;1.80;;
5898;SDS011;2975;50.956;6.962;2023-04-25T11:41:19;8.53;;;2.07;;
5898;SDS011;2975;50.956;6.962;2023-04-25T11:43:47;4.67;;;1.53;;
5898;SDS011;2975;50.956;6.962;2023-04-25T11:46:13;7.03;;;1.80;;
5898;SDS011;2975;50.956;6.962;2023-04-25T11:48:40;2.07;;;1.20;;
5898;SDS011;2975;50.956;6.962;2023-04-25T11:51:07;7.00;;;1.73;;
5898;SDS011;2975;50.956;6.962;2023-04-25T11:53:32;3.20;;;1.30;;
5898;SDS011;2975;50.956;6.962;2023-04-25T11:55:59;5.23;;;1.80;;
5898;SDS011;2975;50.956;6.962;2023-04-25T11:58:25;4.07;;;1.20;;
5898;SDS011;2975;50.956;6.962;2023-04-25T12:00:51;3.60;;;1.53;;
5898;SDS011;2975;50.956;6.962;2023-04-25T12:03:17;4.60;;;1.40;;
5898;SDS011;2975;50.956;6.962;2023-04-25T12:05:44;4.33;;;0.97;;
5898;SDS011;2975;50.956;6.962;2023-04-25T12:08:14;4.83;;;1.10;;
5898;SDS011;2975;50.956;6.962;2023-04-25T12:10:41;3.33;;;1.10;;
5898;SDS011;2975;50.956;6.962;2023-04-25T12:13:18;4.03;;;1.13;;
5898;SDS011;2975;50.956;6.962;2023-04-25T12:15:45;3.60;;;1.00;;
5898;SDS011;2975;50.956;6.962;2023-04-25T12:18:10;2.37;;;0.90;;
5898;SDS011;2975;50.956;6.962;2023-04-25T12:20:36;3.70;;;1.70;;
5898;SDS011;2975;50.956;6.962;2023-04-25T12:23:01;3.27;;;1.10;;
5898;SDS011;2975;50.956;6.962;2023-04-25T12:25:42;6.33;;;1.17;;
5898;SDS011;2975;50.956;6.962;2023-04-25T12:33:29;2.70;;;1.07;;
5898;SDS011;2975;50.956;6.962;2023-04-25T12:35:59;6.53;;;1.40;;
5898;SDS011;2975;50.956;6.962;2023-04-25T12:38:29;4.33;;;1.30;;
5898;SDS011;2975;50.956;6.962;2023-04-25T12:40:56;3.07;;;1.37;;
5898;SDS011;2975;50.956;6.962;2023-04-25T12:43:23;3.37;;;1.30;;
5898;SDS011;2975;50.956;6.962;2023-04-25T12:45:50;5.73;;;1.27;;
5898;SDS011;2975;50.956;6.962;2023-04-25T12:48:16;3.47;;;1.40;;
5898;SDS011;2975;50.956;6.962;2023-04-25T12:50:42;3.80;;;1.40;;
5898;SDS011;2975;50.956;6.962;2023-04-25T12:53:08;3.60;;;0.90;;
5898;SDS011;2975;50.956;6.962;2023-04-25T12:55:34;4.87;;;1.50;;
5898;SDS011;2975;50.956;6.962;2023-04-25T12:58:00;5.00;;;1.60;;
5898;SDS011;2975;50.956;6.962;2023-04-25T13:00:25;2.63;;;1.30;;
5898;SDS011;2975;50.956;6.962;2023-04-25T13:02:51;5.40;;;2.17;;
5898;SDS011;2975;50.956;6.962;2023-04-25T13:05:17;4.70;;;1.27;;
5898;SDS011;2975;50.956;6.962;2023-04-25T13:07:43;4.30;;;1.13;;
5898;SDS011;2975;50.956;6.962;2023-04-25T13:10:08;2.67;;;1.40;;
5898;SDS011;2975;50.956;6.962;2023-04-25T13:12:34;3.30;;;1.37;;
5898;SDS011;2975;50.956;6.962;2023-04-25T13:15:00;2.93;;;0.83;;
5898;SDS011;2975;50.956;6.962;2023-04-25T13:17:25;3.70;;;0.93;;
5898;SDS011;2975;50.956;6.962;2023-04-25T13:19:52;3.00;;;1.10;;
5898;SDS011;2975;50.956;6.962;2023-04-25T13:22:18;4.20;;;1.20;;
5898;SDS011;2975;50.956;6.962;2023-04-25T13:24:45;2.93;;;1.10;;
5898;SDS011;2975;50.956;6.962;2023-04-25T13:27:11;3.53;;;1.13;;
5898;SDS011;2975;50.956;6.962;2023-04-25T13:29:36;1.73;;;1.00;;
5898;SDS011;2975;50.956;6.962;2023-04-25T13:32:03;2.73;;;1.20;;
5898;SDS011;2975;50.956;6.962;2023-04-25T13:34:29;3.97;;;1.30;;
5898;SDS011;2975;50.956;6.962;2023-04-25T13:36:55;4.57;;;1.17;;
5898;SDS011;2975;50.956;6.962;2023-04-25T13:39:21;2.43;;;1.10;;
5898;SDS011;2975;50.956;6.962;2023-04-25T13:41:47;4.37;;;1.17;;
5898;SDS011;2975;50.956;6.962;2023-04-25T13:44:12;2.53;;;1.03;;
5898;SDS011;2975;50.956;6.962;2023-04-25T13:46:38;2.27;;;1.30;;
5898;SDS011;2975;50.956;6.962;2023-04-25T13:49:03;3.43;;;0.90;;
5898;SDS011;2975;50.956;6.962;2023-04-25T13:51:29;3.63;;;1.10;;
5898;SDS011;2975;50.956;6.962;2023-04-25T13:53:56;2.17;;;1.07;;
5898;SDS011;2975;50.956;6.962;2023-04-25T13:56:21;2.90;;;0.97;;
5898;SDS011;2975;50.956;6.962;2023-04-25T13:58:48;3.07;;;1.20;;
5898;SDS011;2975;50.956;6.962;2023-04-25T14:01:15;2.40;;;0.90;;
5898;SDS011;2975;50.956;6.962;2023-04-25T14:03:40;3.07;;;1.03;;
5898;SDS011;2975;50.956;6.962;2023-04-25T14:06:07;2.93;;;1.10;;
5898;SDS011;2975;50.956;6.962;2023-04-25T14:08:33;1.13;;;0.97;;
5898;SDS011;2975;50.956;6.962;2023-04-25T14:10:59;5.90;;;1.10;;
5898;SDS011;2975;50.956;6.962;2023-04-25T14:13:25;2.60;;;1.20;;
5898;SDS011;2975;50.956;6.962;2023-04-25T14:15:51;2.43;;;1.20;;
5898;SDS011;2975;50.956;6.962;2023-04-25T14:18:17;1.27;;;0.90;;
5898;SDS011;2975;50.956;6.962;2023-04-25T14:20:44;3.73;;;1.20;;
5898;SDS011;2975;50.956;6.962;2023-04-25T14:23:10;5.97;;;1.00;;
5898;SDS011;2975;50.956;6.962;2023-04-25T14:25:35;9.57;;;2.03;;
5898;SDS011;2975;50.956;6.962;2023-04-25T14:28:01;5.60;;;1.40;;
5898;SDS011;2975;50.956;6.962;2023-04-25T14:30:27;6.17;;;1.77;;
5898;SDS011;2975;50.956;6.962;2023-04-25T14:32:53;7.03;;;1.90;;
5898;SDS011;2975;50.956;6.962;2023-04-25T14:35:19;4.47;;;1.67;;
5898;SDS011;2975;50.956;6.962;2023-04-25T14:37:45;3.27;;;1.20;;
5898;SDS011;2975;50.956;6.962;2023-04-25T14:40:11;2.80;;;1.20;;
5898;SDS011;2975;50.956;6.962;2023-04-25T14:42:40;3.33;;;0.80;;
5898;SDS011;2975;50.956;6.962;2023-04-25T14:45:06;1.20;;;0.60;;
5898;SDS011;2975;50.956;6.962;2023-04-25T14:47:32;3.37;;;0.70;;
5898;SDS011;2975;50.956;6.962;2023-04-25T14:49:58;3.80;;;1.00;;
5898;SDS011;2975;50.956;6.962;2023-04-25T14:52:24;2.77;;;1.07;;
5898;SDS011;2975;50.956;6.962;2023-04-25T14:54:50;4.97;;;1.00;;
5898;SDS011;2975;50.956;6.962;2023-04-25T14:57:16;3.63;;;0.90;;
5898;SDS011;2975;50.956;6.962;2023-04-25T14:59:42;3.50;;;1.23;;
5898;SDS011;2975;50.956;6.962;2023-04-25T15:02:07;3.17;;;1.13;;
5898;SDS011;2975;50.956;6.962;2023-04-25T15:04:33;4.23;;;1.83;;
5898;SDS011;2975;50.956;6.962;2023-04-25T15:06:58;3.33;;;1.10;;
5898;SDS011;2975;50.956;6.962;2023-04-25T15:09:24;2.27;;;1.27;;
5898;SDS011;2975;50.956;6.962;2023-04-25T15:11:50;3.30;;;1.10;;
5898;SDS011;2975;50.956;6.962;2023-04-25T15:14:16;4.37;;;1.03;;
5898;SDS011;2975;50.956;6.962;2023-04-25T15:16:42;1.40;;;0.83;;
5898;SDS011;2975;50.956;6.962;2023-04-25T15:19:08;2.33;;;0.60;;